sensor_id;sensor_type;location;lat;lon;timestamp;temperature;humidity
22145;DHT22;11238;48.730;11.566;2023-12-07T00:01:09;1.40;99.90
22145;DHT22;11238;48.730;11.566;2023-12-07T00:03:35;1.50;99.90
22145;DHT22;11238;48.730;11.566;2023-12-07T00:06:01;1.50;99.90
22145;DHT22;11238;48.730;11.566;2023-12-07T00:08:27;1.50;99.90
22145;DHT22;11238;48.730;11.566;2023-12-07T00:10:52;1.50;99.90
22145;DHT22;11238;48.730;11.566;2023-12-07T00:13:18;1.60;99.90
22145;DHT22;11238;48.730;11.566;2023-12-07T00:15:44;1.50;99.90
22145;DHT22;11238;48.730;11.566;2023-12-07T00:18:10;1.50;99.90
22145;DHT22;11238;48.730;11.566;2023-12-07T00:20:36;1.60;99.90
22145;DHT22;11238;48.730;11.566;2023-12-07T00:23:02;1.50;99.90
22145;DHT22;11238;48.730;11.566;2023-12-07T00:25:27;1.50;99.90
22145;DHT22;11238;48.730;11.566;2023-12-07T00:27:54;1.60;99.90
22145;DHT22;11238;48.730;11.566;2023-12-07T00:30:20;1.60;99.90
22145;DHT22;11238;48.730;11.566;2023-12-07T00:32:46;1.50;99.90
22145;DHT22;11238;48.730;11.566;2023-12-07T00:35:12;1.60;99.90
22145;DHT22;11238;48.730;11.566;2023-12-07T00:37:38;1.50;99.90
22145;DHT22;11238;48.730;11.566;2023-12-07T00:40:05;1.50;99.90
22145;DHT22;11238;48.730;11.566;2023-12-07T00:42:31;1.50;99.90
22145;DHT22;11238;48.730;11.566;2023-12-07T00:44:57;1.60;99.90
22145;DHT22;11238;48.730;11.566;2023-12-07T00:47:23;1.60;99.90
22145;DHT22;11238;48.730;11.566;2023-12-07T00:49:48;1.50;99.90
22145;DHT22;11238;48.730;11.566;2023-12-07T00:52:14;1.50;99.90
22145;DHT22;11238;48.730;11.566;2023-12-07T00:54:40;1.50;99.90
22145;DHT22;11238;48.730;11.566;2023-12-07T00:57:06;1.50;99.90
22145;DHT22;11238;48.730;11.566;2023-12-07T00:59:32;1.40;99.90
22145;DHT22;11238;48.730;11.566;2023-12-07T01:02:03;1.50;99.90
22145;DHT22;11238;48.730;11.566;2023-12-07T01:04:30;1.40;99.90
22145;DHT22;11238;48.730;11.566;2023-12-07T01:06:57;1.30;99.90
22145;DHT22;11238;48.730;11.566;2023-12-07T01:09:23;1.20;99.90
22145;DHT22;11238;48.730;11.566;2023-12-07T01:11:50;1.10;99.90
22145;DHT22;11238;48.730;11.566;2023-12-07T01:14:16;1.00;99.90
22145;DHT22;11238;48.730;11.566;2023-12-07T01:16:43;0.90;99.90
22145;DHT22;11238;48.730;11.566;2023-12-07T01:19:09;0.90;99.90
22145;DHT22;11238;48.730;11.566;2023-12-07T01:21:36;0.90;99.90
22145;DHT22;11238;48.730;11.566;2023-12-07T01:24:02;1.00;99.90
22145;DHT22;11238;48.730;11.566;2023-12-07T01:26:28;1.10;99.90
22145;DHT22;11238;48.730;11.566;2023-12-07T01:28:53;1.20;99.90
22145;DHT22;11238;48.730;11.566;2023-12-07T01:31:19;1.20;99.90
22145;DHT22;11238;48.730;11.566;2023-12-07T01:33:45;1.30;99.90
22145;DHT22;11238;48.730;11.566;2023-12-07T01:36:11;1.30;99.90
22145;DHT22;11238;48.730;11.566;2023-12-07T01:38:38;1.40;99.90
22145;DHT22;11238;48.730;11.566;2023-12-07T01:41:03;1.50;99.90
22145;DHT22;11238;48.730;11.566;2023-12-07T01:43:30;1.40;99.90
22145;DHT22;11238;48.730;11.566;2023-12-07T01:45:57;1.40;99.90
22145;DHT22;11238;48.730;11.566;2023-12-07T01:48:24;1.40;99.90
22145;DHT22;11238;48.730;11.566;2023-12-07T01:50:53;1.40;99.90
22145;DHT22;11238;48.730;11.566;2023-12-07T01:53:21;1.40;99.90
22145;DHT22;11238;48.730;11.566;2023-12-07T01:55:47;1.40;99.90
22145;DHT22;11238;48.730;11.566;2023-12-07T01:58:14;1.40;99.90
22145;DHT22;11238;48.730;11.566;2023-12-07T02:00:42;1.40;99.90
22145;DHT22;11238;48.730;11.566;2023-12-07T02:03:08;1.30;99.90
22145;DHT22;11238;48.730;11.566;2023-12-07T02:05:35;1.40;99.90
22145;DHT22;11238;48.730;11.566;2023-12-07T02:08:02;1.40;99.90
22145;DHT22;11238;48.730;11.566;2023-12-07T02:10:28;1.40;99.90
22145;DHT22;11238;48.730;11.566;2023-12-07T02:12:54;1.40;99.90
22145;DHT22;11238;48.730;11.566;2023-12-07T02:15:20;1.30;99.90
22145;DHT22;11238;48.730;11.566;2023-12-07T02:17:59;1.30;99.90
22145;DHT22;11238;48.730;11.566;2023-12-07T02:20:43;1.30;99.90
22145;DHT22;11238;48.730;11.566;2023-12-07T02:23:12;1.30;99.90
22145;DHT22;11238;48.730;11.566;2023-12-07T02:25:51;1.20;99.90
22145;DHT22;11238;48.730;11.566;2023-12-07T02:28:17;1.20;99.90
22145;DHT22;11238;48.730;11.566;2023-12-07T02:30:43;1.30;99.90
22145;DHT22;11238;48.730;11.566;2023-12-07T02:33:09;1.30;99.90
22145;DHT22;11238;48.730;11.566;2023-12-07T02:35:37;1.30;99.90
22145;DHT22;11238;48.730;11.566;2023-12-07T02:38:03;1.30;99.90
22145;DHT22;11238;48.730;11.566;2023-12-07T02:40:31;1.40;99.90
22145;DHT22;11238;48.730;11.566;2023-12-07T02:42:58;1.40;99.90
22145;DHT22;11238;48.730;11.566;2023-12-07T02:45:25;1.30;99.90
22145;DHT22;11238;48.730;11.566;2023-12-07T02:47:54;1.30;99.90
22145;DHT22;11238;48.730;11.566;2023-12-07T02:50:20;1.30;99.90
22145;DHT22;11238;48.730;11.566;2023-12-07T02:52:46;1.20;99.90
22145;DHT22;11238;48.730;11.566;2023-12-07T02:55:12;1.20;99.90
22145;DHT22;11238;48.730;11.566;2023-12-07T02:57:38;1.20;99.90
22145;DHT22;11238;48.730;11.566;2023-12-07T03:00:05;1.20;99.90
22145;DHT22;11238;48.730;11.566;2023-12-07T03:02:35;1.20;99.90
22145;DHT22;11238;48.730;11.566;2023-12-07T03:05:01;1.20;99.90
22145;DHT22;11238;48.730;11.566;2023-12-07T03:07:27;1.20;99.90
22145;DHT22;11238;48.730;11.566;2023-12-07T03:09:53;1.20;99.90
22145;DHT22;11238;48.730;11.566;2023-12-07T03:12:18;1.30;99.90
22145;DHT22;11238;48.730;11.566;2023-12-07T03:14:44;1.30;99.90
22145;DHT22;11238;48.730;11.566;2023-12-07T03:20:06;1.30;99.90
22145;DHT22;11238;48.730;11.566;2023-12-07T03:22:33;1.40;99.90
22145;DHT22;11238;48.730;11.566;2023-12-07T03:24:59;1.40;99.90
22145;DHT22;11238;48.730;11.566;2023-12-07T03:27:25;1.30;99.90
22145;DHT22;11238;48.730;11.566;2023-12-07T03:29:51;1.20;99.90
22145;DHT22;11238;48.730;11.566;2023-12-07T03:32:17;1.30;99.90
22145;DHT22;11238;48.730;11.566;2023-12-07T03:34:43;1.30;99.90
22145;DHT22;11238;48.730;11.566;2023-12-07T03:37:09;1.30;99.90
22145;DHT22;11238;48.730;11.566;2023-12-07T03:39:34;1.30;99.90
22145;DHT22;11238;48.730;11.566;2023-12-07T03:42:00;1.30;99.90
22145;DHT22;11238;48.730;11.566;2023-12-07T03:44:26;1.30;99.90
22145;DHT22;11238;48.730;11.566;2023-12-07T03:46:52;1.30;99.90
22145;DHT22;11238;48.730;11.566;2023-12-07T03:49:18;1.30;99.90
22145;DHT22;11238;48.730;11.566;2023-12-07T03:51:44;1.30;99.90
22145;DHT22;11238;48.730;11.566;2023-12-07T03:54:10;1.30;99.90
22145;DHT22;11238;48.730;11.566;2023-12-07T03:56:36;1.40;99.90
22145;DHT22;11238;48.730;11.566;2023-12-07T03:59:02;1.40;99.90
22145;DHT22;11238;48.730;11.566;2023-12-07T04:01:29;1.30;99.90
22145;DHT22;11238;48.730;11.566;2023-12-07T04:03:55;1.30;99.90
22145;DHT22;11238;48.730;11.566;2023-12-07T04:06:22;1.20;99.90
22145;DHT22;11238;48.730;11.566;2023-12-07T04:08:48;1.30;99.90
22145;DHT22;11238;48.730;11.566;2023-12-07T04:11:15;1.30;99.90
22145;DHT22;11238;48.730;11.566;2023-12-07T04:13:41;1.30;99.90
22145;DHT22;11238;48.730;11.566;2023-12-07T04:16:08;1.30;99.90
22145;DHT22;11238;48.730;11.566;2023-12-07T04:18:34;1.30;99.90
22145;DHT22;11238;48.730;11.566;2023-12-07T04:21:00;1.20;99.90
22145;DHT22;11238;48.730;11.566;2023-12-07T04:23:26;1.20;99.90
22145;DHT22;11238;48.730;11.566;2023-12-07T04:25:52;1.20;99.90
22145;DHT22;11238;48.730;11.566;2023-12-07T04:28:18;1.20;99.90
22145;DHT22;11238;48.730;11.566;2023-12-07T04:30:44;1.20;99.90
22145;DHT22;11238;48.730;11.566;2023-12-07T04:33:09;1.20;99.90
22145;DHT22;11238;48.730;11.566;2023-12-07T04:35:36;1.10;99.90
22145;DHT22;11238;48.730;11.566;2023-12-07T04:38:02;1.10;99.90
22145;DHT22;11238;48.730;11.566;2023-12-07T04:40:29;1.10;99.90
22145;DHT22;11238;48.730;11.566;2023-12-07T04:42:54;1.00;99.90
22145;DHT22;11238;48.730;11.566;2023-12-07T04:45:20;1.00;99.90
22145;DHT22;11238;48.730;11.566;2023-12-07T04:47:46;1.00;99.90
22145;DHT22;11238;48.730;11.566;2023-12-07T04:50:12;1.00;99.90
22145;DHT22;11238;48.730;11.566;2023-12-07T04:52:38;1.00;99.90
22145;DHT22;11238;48.730;11.566;2023-12-07T04:55:05;1.10;99.90
22145;DHT22;11238;48.730;11.566;2023-12-07T04:57:35;1.10;99.90
22145;DHT22;11238;48.730;11.566;2023-12-07T05:00:04;1.10;99.90
22145;DHT22;11238;48.730;11.566;2023-12-07T05:02:36;1.20;99.90
22145;DHT22;11238;48.730;11.566;2023-12-07T05:05:03;1.20;99.90
22145;DHT22;11238;48.730;11.566;2023-12-07T05:07:29;1.20;99.90
22145;DHT22;11238;48.730;11.566;2023-12-07T05:09:54;1.20;99.90
22145;DHT22;11238;48.730;11.566;2023-12-07T05:12:20;1.30;99.90
22145;DHT22;11238;48.730;11.566;2023-12-07T05:14:46;1.20;99.90
22145;DHT22;11238;48.730;11.566;2023-12-07T05:17:13;1.20;99.90
22145;DHT22;11238;48.730;11.566;2023-12-07T05:19:39;1.30;99.90
22145;DHT22;11238;48.730;11.566;2023-12-07T05:22:05;1.30;99.90
22145;DHT22;11238;48.730;11.566;2023-12-07T05:24:31;1.30;99.90
22145;DHT22;11238;48.730;11.566;2023-12-07T05:27:22;1.30;99.90
22145;DHT22;11238;48.730;11.566;2023-12-07T05:29:48;1.30;99.90
22145;DHT22;11238;48.730;11.566;2023-12-07T05:32:14;1.30;99.90
22145;DHT22;11238;48.730;11.566;2023-12-07T05:34:39;1.30;99.90
22145;DHT22;11238;48.730;11.566;2023-12-07T05:37:06;1.30;99.90
22145;DHT22;11238;48.730;11.566;2023-12-07T05:39:33;1.30;99.90
22145;DHT22;11238;48.730;11.566;2023-12-07T05:41:59;1.20;99.90
22145;DHT22;11238;48.730;11.566;2023-12-07T05:44:25;1.30;99.90
22145;DHT22;11238;48.730;11.566;2023-12-07T05:46:51;1.20;99.90
22145;DHT22;11238;48.730;11.566;2023-12-07T05:49:17;1.20;99.90
22145;DHT22;11238;48.730;11.566;2023-12-07T05:51:42;1.20;99.90
22145;DHT22;11238;48.730;11.566;2023-12-07T05:54:10;1.20;99.90
22145;DHT22;11238;48.730;11.566;2023-12-07T05:56:35;1.20;99.90
22145;DHT22;11238;48.730;11.566;2023-12-07T05:59:01;1.20;99.90
22145;DHT22;11238;48.730;11.566;2023-12-07T06:01:27;1.20;99.90
22145;DHT22;11238;48.730;11.566;2023-12-07T06:03:54;1.20;99.90
22145;DHT22;11238;48.730;11.566;2023-12-07T06:06:20;1.20;99.90
22145;DHT22;11238;48.730;11.566;2023-12-07T06:08:47;1.20;99.90
22145;DHT22;11238;48.730;11.566;2023-12-07T06:11:13;1.20;99.90
22145;DHT22;11238;48.730;11.566;2023-12-07T06:13:39;1.20;99.90
22145;DHT22;11238;48.730;11.566;2023-12-07T06:16:05;1.10;99.90
22145;DHT22;11238;48.730;11.566;2023-12-07T06:18:31;1.10;99.90
22145;DHT22;11238;48.730;11.566;2023-12-07T06:20:58;1.00;99.90
22145;DHT22;11238;48.730;11.566;2023-12-07T06:23:23;1.10;99.90
22145;DHT22;11238;48.730;11.566;2023-12-07T06:25:49;1.00;99.90
22145;DHT22;11238;48.730;11.566;2023-12-07T06:28:15;1.10;99.90
22145;DHT22;11238;48.730;11.566;2023-12-07T06:30:41;1.00;99.90
22145;DHT22;11238;48.730;11.566;2023-12-07T06:33:07;1.00;99.90
22145;DHT22;11238;48.730;11.566;2023-12-07T06:35:33;1.00;99.90
22145;DHT22;11238;48.730;11.566;2023-12-07T06:37:58;1.00;99.90
22145;DHT22;11238;48.730;11.566;2023-12-07T06:40:27;1.00;99.90
22145;DHT22;11238;48.730;11.566;2023-12-07T06:42:53;0.90;99.90
22145;DHT22;11238;48.730;11.566;2023-12-07T06:48:47;1.00;99.90
22145;DHT22;11238;48.730;11.566;2023-12-07T06:51:12;1.00;99.90
22145;DHT22;11238;48.730;11.566;2023-12-07T06:53:41;1.00;99.90
22145;DHT22;11238;48.730;11.566;2023-12-07T06:56:08;0.90;99.90
22145;DHT22;11238;48.730;11.566;2023-12-07T06:58:33;0.90;99.90
22145;DHT22;11238;48.730;11.566;2023-12-07T07:00:59;0.90;99.90
22145;DHT22;11238;48.730;11.566;2023-12-07T07:03:28;0.90;99.90
22145;DHT22;11238;48.730;11.566;2023-12-07T07:05:55;0.90;99.90
22145;DHT22;11238;48.730;11.566;2023-12-07T07:08:45;0.90;99.90
22145;DHT22;11238;48.730;11.566;2023-12-07T07:11:56;0.90;99.90
22145;DHT22;11238;48.730;11.566;2023-12-07T07:15:08;0.90;99.90
22145;DHT22;11238;48.730;11.566;2023-12-07T07:53:19;1.10;99.90
22145;DHT22;11238;48.730;11.566;2023-12-07T07:55:45;1.10;99.90
22145;DHT22;11238;48.730;11.566;2023-12-07T07:58:11;1.10;99.90
22145;DHT22;11238;48.730;11.566;2023-12-07T08:00:37;1.10;99.90
22145;DHT22;11238;48.730;11.566;2023-12-07T08:03:03;1.10;99.90
22145;DHT22;11238;48.730;11.566;2023-12-07T08:05:29;1.20;99.90
22145;DHT22;11238;48.730;11.566;2023-12-07T08:07:59;1.30;99.90
22145;DHT22;11238;48.730;11.566;2023-12-07T08:10:47;1.30;99.90
22145;DHT22;11238;48.730;11.566;2023-12-07T08:13:14;1.30;99.90
22145;DHT22;11238;48.730;11.566;2023-12-07T08:15:40;1.40;99.90
22145;DHT22;11238;48.730;11.566;2023-12-07T08:18:05;1.40;99.90
22145;DHT22;11238;48.730;11.566;2023-12-07T08:20:32;1.40;99.90
22145;DHT22;11238;48.730;11.566;2023-12-07T08:22:58;1.50;99.90
22145;DHT22;11238;48.730;11.566;2023-12-07T08:25:24;1.50;99.90
22145;DHT22;11238;48.730;11.566;2023-12-07T08:27:50;1.50;99.90
22145;DHT22;11238;48.730;11.566;2023-12-07T08:30:16;1.50;99.90
22145;DHT22;11238;48.730;11.566;2023-12-07T08:32:43;1.60;99.90
22145;DHT22;11238;48.730;11.566;2023-12-07T08:35:09;1.60;99.90
22145;DHT22;11238;48.730;11.566;2023-12-07T08:37:37;1.60;99.90
22145;DHT22;11238;48.730;11.566;2023-12-07T08:40:04;1.60;99.90
22145;DHT22;11238;48.730;11.566;2023-12-07T08:42:31;1.60;99.90
22145;DHT22;11238;48.730;11.566;2023-12-07T08:44:57;1.70;99.90
22145;DHT22;11238;48.730;11.566;2023-12-07T08:47:24;1.60;99.90
22145;DHT22;11238;48.730;11.566;2023-12-07T08:49:53;1.40;99.90
22145;DHT22;11238;48.730;11.566;2023-12-07T08:52:20;1.40;99.90
22145;DHT22;11238;48.730;11.566;2023-12-07T08:54:47;1.50;99.90
22145;DHT22;11238;48.730;11.566;2023-12-07T08:57:12;1.50;99.90
22145;DHT22;11238;48.730;11.566;2023-12-07T08:59:39;1.60;99.90
22145;DHT22;11238;48.730;11.566;2023-12-07T09:02:05;1.60;99.90
22145;DHT22;11238;48.730;11.566;2023-12-07T09:04:31;1.70;99.90
22145;DHT22;11238;48.730;11.566;2023-12-07T09:06:58;1.70;99.90
22145;DHT22;11238;48.730;11.566;2023-12-07T09:09:23;1.80;99.90
22145;DHT22;11238;48.730;11.566;2023-12-07T09:11:52;1.90;99.90
22145;DHT22;11238;48.730;11.566;2023-12-07T09:14:18;2.00;99.90
22145;DHT22;11238;48.730;11.566;2023-12-07T09:16:45;2.00;99.90
22145;DHT22;11238;48.730;11.566;2023-12-07T09:19:12;2.10;99.90
22145;DHT22;11238;48.730;11.566;2023-12-07T09:21:40;2.10;99.90
22145;DHT22;11238;48.730;11.566;2023-12-07T09:24:06;2.20;99.90
22145;DHT22;11238;48.730;11.566;2023-12-07T09:26:33;2.30;99.90
22145;DHT22;11238;48.730;11.566;2023-12-07T09:28:59;2.30;99.90
22145;DHT22;11238;48.730;11.566;2023-12-07T09:31:25;2.40;99.90
22145;DHT22;11238;48.730;11.566;2023-12-07T09:33:51;2.40;99.90
22145;DHT22;11238;48.730;11.566;2023-12-07T09:36:21;2.40;99.90
22145;DHT22;11238;48.730;11.566;2023-12-07T09:38:47;2.40;99.90
22145;DHT22;11238;48.730;11.566;2023-12-07T09:41:35;2.50;99.90
22145;DHT22;11238;48.730;11.566;2023-12-07T09:44:02;2.40;99.90
22145;DHT22;11238;48.730;11.566;2023-12-07T09:46:30;2.40;99.90
22145;DHT22;11238;48.730;11.566;2023-12-07T09:48:56;2.40;99.90
22145;DHT22;11238;48.730;11.566;2023-12-07T09:51:22;2.40;99.90
22145;DHT22;11238;48.730;11.566;2023-12-07T09:53:50;2.40;99.90
22145;DHT22;11238;48.730;11.566;2023-12-07T09:56:40;2.40;99.90
22145;DHT22;11238;48.730;11.566;2023-12-07T09:59:06;2.40;99.90
22145;DHT22;11238;48.730;11.566;2023-12-07T10:01:33;2.40;99.90
22145;DHT22;11238;48.730;11.566;2023-12-07T10:04:15;2.40;99.90
22145;DHT22;11238;48.730;11.566;2023-12-07T10:06:44;2.40;99.90
22145;DHT22;11238;48.730;11.566;2023-12-07T10:09:15;2.40;99.90
22145;DHT22;11238;48.730;11.566;2023-12-07T10:11:41;2.50;99.90
22145;DHT22;11238;48.730;11.566;2023-12-07T10:14:07;2.60;99.90
22145;DHT22;11238;48.730;11.566;2023-12-07T10:16:33;2.70;99.90
22145;DHT22;11238;48.730;11.566;2023-12-07T10:19:17;2.90;99.90
22145;DHT22;11238;48.730;11.566;2023-12-07T10:22:15;3.20;99.90
22145;DHT22;11238;48.730;11.566;2023-12-07T10:24:42;3.50;99.90
22145;DHT22;11238;48.730;11.566;2023-12-07T10:27:08;3.80;99.90
22145;DHT22;11238;48.730;11.566;2023-12-07T10:29:38;4.30;99.90
22145;DHT22;11238;48.730;11.566;2023-12-07T10:32:27;4.80;99.90
22145;DHT22;11238;48.730;11.566;2023-12-07T10:34:54;5.20;99.90
22145;DHT22;11238;48.730;11.566;2023-12-07T10:37:25;5.30;99.90
22145;DHT22;11238;48.730;11.566;2023-12-07T10:39:51;5.40;99.90
22145;DHT22;11238;48.730;11.566;2023-12-07T10:42:18;5.40;99.90
22145;DHT22;11238;48.730;11.566;2023-12-07T10:44:50;5.40;99.90
22145;DHT22;11238;48.730;11.566;2023-12-07T10:47:19;5.70;99.90
22145;DHT22;11238;48.730;11.566;2023-12-07T10:49:51;5.70;99.90
22145;DHT22;11238;48.730;11.566;2023-12-07T10:52:23;5.30;99.90
22145;DHT22;11238;48.730;11.566;2023-12-07T10:55:12;5.10;99.90
22145;DHT22;11238;48.730;11.566;2023-12-07T10:57:39;4.70;99.90
22145;DHT22;11238;48.730;11.566;2023-12-07T11:00:08;4.50;99.90
22145;DHT22;11238;48.730;11.566;2023-12-07T11:02:35;4.70;99.90
22145;DHT22;11238;48.730;11.566;2023-12-07T11:05:02;5.20;99.90
22145;DHT22;11238;48.730;11.566;2023-12-07T11:07:38;5.80;99.90
22145;DHT22;11238;48.730;11.566;2023-12-07T11:10:12;6.00;99.90
22145;DHT22;11238;48.730;11.566;2023-12-07T11:12:53;6.00;99.90
22145;DHT22;11238;48.730;11.566;2023-12-07T11:15:21;6.40;99.90
22145;DHT22;11238;48.730;11.566;2023-12-07T11:17:51;6.70;99.90
22145;DHT22;11238;48.730;11.566;2023-12-07T11:20:20;6.40;99.90
22145;DHT22;11238;48.730;11.566;2023-12-07T11:22:46;6.00;99.90
22145;DHT22;11238;48.730;11.566;2023-12-07T11:25:14;6.50;99.90
22145;DHT22;11238;48.730;11.566;2023-12-07T11:27:40;7.00;99.90
22145;DHT22;11238;48.730;11.566;2023-12-07T11:30:07;7.30;99.90
22145;DHT22;11238;48.730;11.566;2023-12-07T11:32:33;7.60;99.90
22145;DHT22;11238;48.730;11.566;2023-12-07T11:35:03;7.80;99.90
22145;DHT22;11238;48.730;11.566;2023-12-07T11:40:35;7.90;99.90
22145;DHT22;11238;48.730;11.566;2023-12-07T11:43:01;7.90;99.90
22145;DHT22;11238;48.730;11.566;2023-12-07T11:45:37;7.80;99.90
22145;DHT22;11238;48.730;11.566;2023-12-07T11:48:10;7.70;99.90
22145;DHT22;11238;48.730;11.566;2023-12-07T11:50:53;7.70;99.90
22145;DHT22;11238;48.730;11.566;2023-12-07T11:53:25;7.30;99.90
22145;DHT22;11238;48.730;11.566;2023-12-07T11:55:51;7.20;99.90
22145;DHT22;11238;48.730;11.566;2023-12-07T11:58:17;7.30;99.90
22145;DHT22;11238;48.730;11.566;2023-12-07T12:00:44;7.20;99.90
22145;DHT22;11238;48.730;11.566;2023-12-07T12:03:15;7.30;99.90
22145;DHT22;11238;48.730;11.566;2023-12-07T12:05:41;7.30;99.90
22145;DHT22;11238;48.730;11.566;2023-12-07T12:08:08;7.20;99.90
22145;DHT22;11238;48.730;11.566;2023-12-07T12:10:34;7.30;99.90
22145;DHT22;11238;48.730;11.566;2023-12-07T12:13:03;7.20;99.90
22145;DHT22;11238;48.730;11.566;2023-12-07T12:15:30;7.20;99.90
22145;DHT22;11238;48.730;11.566;2023-12-07T12:17:57;7.10;99.90
22145;DHT22;11238;48.730;11.566;2023-12-07T12:20:24;7.20;99.90
22145;DHT22;11238;48.730;11.566;2023-12-07T12:22:50;7.20;99.90
22145;DHT22;11238;48.730;11.566;2023-12-07T12:25:23;7.20;99.90
22145;DHT22;11238;48.730;11.566;2023-12-07T12:27:52;7.20;99.90
22145;DHT22;11238;48.730;11.566;2023-12-07T12:30:20;7.30;99.90
22145;DHT22;11238;48.730;11.566;2023-12-07T12:32:46;7.00;99.90
22145;DHT22;11238;48.730;11.566;2023-12-07T12:35:13;7.00;99.90
22145;DHT22;11238;48.730;11.566;2023-12-07T12:37:45;6.80;99.90
22145;DHT22;11238;48.730;11.566;2023-12-07T12:40:11;6.60;99.90
22145;DHT22;11238;48.730;11.566;2023-12-07T12:42:39;6.30;99.90
22145;DHT22;11238;48.730;11.566;2023-12-07T12:45:05;6.20;99.90
22145;DHT22;11238;48.730;11.566;2023-12-07T12:47:31;6.30;99.90
22145;DHT22;11238;48.730;11.566;2023-12-07T12:49:58;6.10;99.90
22145;DHT22;11238;48.730;11.566;2023-12-07T12:52:25;5.50;99.90
22145;DHT22;11238;48.730;11.566;2023-12-07T12:54:55;5.30;99.90
22145;DHT22;11238;48.730;11.566;2023-12-07T12:57:22;5.50;99.90
22145;DHT22;11238;48.730;11.566;2023-12-07T12:59:48;5.40;99.90
22145;DHT22;11238;48.730;11.566;2023-12-07T13:02:14;5.20;99.90
22145;DHT22;11238;48.730;11.566;2023-12-07T13:04:39;5.30;99.90
22145;DHT22;11238;48.730;11.566;2023-12-07T13:07:09;5.40;99.90
22145;DHT22;11238;48.730;11.566;2023-12-07T13:09:34;4.90;99.90
22145;DHT22;11238;48.730;11.566;2023-12-07T13:12:00;5.10;99.90
22145;DHT22;11238;48.730;11.566;2023-12-07T13:14:26;5.30;99.90
22145;DHT22;11238;48.730;11.566;2023-12-07T13:16:52;5.40;99.90
22145;DHT22;11238;48.730;11.566;2023-12-07T13:19:18;5.40;99.90
22145;DHT22;11238;48.730;11.566;2023-12-07T13:21:45;5.20;99.90
22145;DHT22;11238;48.730;11.566;2023-12-07T13:24:11;5.20;99.90
22145;DHT22;11238;48.730;11.566;2023-12-07T13:26:41;5.20;99.90
22145;DHT22;11238;48.730;11.566;2023-12-07T13:29:07;5.20;99.90
22145;DHT22;11238;48.730;11.566;2023-12-07T13:31:34;5.10;99.90
22145;DHT22;11238;48.730;11.566;2023-12-07T13:34:00;5.10;99.90
22145;DHT22;11238;48.730;11.566;2023-12-07T13:36:26;5.10;99.90
22145;DHT22;11238;48.730;11.566;2023-12-07T13:38:55;5.00;99.90
22145;DHT22;11238;48.730;11.566;2023-12-07T13:41:21;5.00;99.90
22145;DHT22;11238;48.730;11.566;2023-12-07T13:43:48;5.00;99.90
22145;DHT22;11238;48.730;11.566;2023-12-07T13:46:14;5.00;99.90
22145;DHT22;11238;48.730;11.566;2023-12-07T13:48:41;4.80;99.90
22145;DHT22;11238;48.730;11.566;2023-12-07T13:51:07;4.80;99.90
22145;DHT22;11238;48.730;11.566;2023-12-07T13:53:32;4.80;99.90
22145;DHT22;11238;48.730;11.566;2023-12-07T13:56:00;4.80;99.90
22145;DHT22;11238;48.730;11.566;2023-12-07T13:58:25;4.80;99.90
22145;DHT22;11238;48.730;11.566;2023-12-07T14:00:51;4.70;99.90
22145;DHT22;11238;48.730;11.566;2023-12-07T14:03:17;4.60;99.90
22145;DHT22;11238;48.730;11.566;2023-12-07T14:05:42;4.60;99.90
22145;DHT22;11238;48.730;11.566;2023-12-07T14:08:08;4.50;99.90
22145;DHT22;11238;48.730;11.566;2023-12-07T14:10:34;4.40;99.90
22145;DHT22;11238;48.730;11.566;2023-12-07T14:13:00;4.40;99.90
22145;DHT22;11238;48.730;11.566;2023-12-07T14:15:26;4.40;99.90
22145;DHT22;11238;48.730;11.566;2023-12-07T14:17:52;4.30;99.90
22145;DHT22;11238;48.730;11.566;2023-12-07T14:20:18;4.20;99.90
22145;DHT22;11238;48.730;11.566;2023-12-07T14:22:43;4.10;99.90
22145;DHT22;11238;48.730;11.566;2023-12-07T14:25:11;4.10;99.90
22145;DHT22;11238;48.730;11.566;2023-12-07T14:27:37;4.00;99.90
22145;DHT22;11238;48.730;11.566;2023-12-07T14:30:03;3.80;99.90
22145;DHT22;11238;48.730;11.566;2023-12-07T14:32:28;3.90;99.90
22145;DHT22;11238;48.730;11.566;2023-12-07T14:34:55;3.80;99.90
22145;DHT22;11238;48.730;11.566;2023-12-07T14:37:21;3.70;99.90
22145;DHT22;11238;48.730;11.566;2023-12-07T14:39:46;3.60;99.90
22145;DHT22;11238;48.730;11.566;2023-12-07T14:42:12;3.60;99.90
22145;DHT22;11238;48.730;11.566;2023-12-07T14:44:38;3.50;99.90
22145;DHT22;11238;48.730;11.566;2023-12-07T14:47:03;3.40;99.90
22145;DHT22;11238;48.730;11.566;2023-12-07T14:49:29;3.20;99.90
22145;DHT22;11238;48.730;11.566;2023-12-07T14:51:55;3.20;99.90
22145;DHT22;11238;48.730;11.566;2023-12-07T14:54:26;3.10;99.90
22145;DHT22;11238;48.730;11.566;2023-12-07T14:56:52;3.10;99.90
22145;DHT22;11238;48.730;11.566;2023-12-07T14:59:18;3.10;99.90
22145;DHT22;11238;48.730;11.566;2023-12-07T15:01:45;3.10;99.90
22145;DHT22;11238;48.730;11.566;2023-12-07T15:04:11;3.00;99.90
22145;DHT22;11238;48.730;11.566;2023-12-07T15:06:36;3.00;99.90
22145;DHT22;11238;48.730;11.566;2023-12-07T15:09:02;2.90;99.90
22145;DHT22;11238;48.730;11.566;2023-12-07T15:11:36;2.80;99.90
22145;DHT22;11238;48.730;11.566;2023-12-07T15:14:02;2.80;99.90
22145;DHT22;11238;48.730;11.566;2023-12-07T15:16:29;2.80;99.90
22145;DHT22;11238;48.730;11.566;2023-12-07T15:18:55;2.80;99.90
22145;DHT22;11238;48.730;11.566;2023-12-07T15:21:21;2.70;99.90
22145;DHT22;11238;48.730;11.566;2023-12-07T15:23:48;2.70;99.90
22145;DHT22;11238;48.730;11.566;2023-12-07T15:26:14;2.60;99.90
22145;DHT22;11238;48.730;11.566;2023-12-07T15:28:41;2.60;99.90
22145;DHT22;11238;48.730;11.566;2023-12-07T15:31:08;2.60;99.90
22145;DHT22;11238;48.730;11.566;2023-12-07T15:33:34;2.70;99.90
22145;DHT22;11238;48.730;11.566;2023-12-07T15:36:01;2.60;99.90
22145;DHT22;11238;48.730;11.566;2023-12-07T15:38:28;2.60;99.90
22145;DHT22;11238;48.730;11.566;2023-12-07T15:40:54;2.50;99.90
22145;DHT22;11238;48.730;11.566;2023-12-07T15:43:24;2.50;99.90
22145;DHT22;11238;48.730;11.566;2023-12-07T15:45:50;2.50;99.90
22145;DHT22;11238;48.730;11.566;2023-12-07T15:48:17;2.40;99.90
22145;DHT22;11238;48.730;11.566;2023-12-07T15:50:44;2.40;99.90
22145;DHT22;11238;48.730;11.566;2023-12-07T15:53:09;2.40;99.90
22145;DHT22;11238;48.730;11.566;2023-12-07T15:55:35;2.20;99.90
22145;DHT22;11238;48.730;11.566;2023-12-07T15:58:01;2.20;99.90
22145;DHT22;11238;48.730;11.566;2023-12-07T16:00:26;2.20;99.90
22145;DHT22;11238;48.730;11.566;2023-12-07T16:02:52;2.10;99.90
22145;DHT22;11238;48.730;11.566;2023-12-07T16:05:20;2.00;99.90
22145;DHT22;11238;48.730;11.566;2023-12-07T16:07:46;1.90;99.90
22145;DHT22;11238;48.730;11.566;2023-12-07T16:10:12;1.90;99.90
22145;DHT22;11238;48.730;11.566;2023-12-07T16:12:39;1.80;99.90
22145;DHT22;11238;48.730;11.566;2023-12-07T16:15:05;1.70;99.90
22145;DHT22;11238;48.730;11.566;2023-12-07T16:17:32;1.60;99.90